createdAt,value
2023-12-30T00:00:18.686Z,22.42
2023-12-30T00:01:17.064Z,22.92
2023-12-30T00:02:13.914Z,23.67
2023-12-30T00:03:10.502Z,23.67
2023-12-30T00:04:07.173Z,23.08
2023-12-30T00:05:04.490Z,22.23
2023-12-30T00:06:01.334Z,22.00
2023-12-30T00:06:58.124Z,23.63
2023-12-30T00:07:54.943Z,24.23
2023-12-30T00:08:51.640Z,25.08
2023-12-30T00:09:48.356Z,24.58
2023-12-30T00:10:45.036Z,24.45
2023-12-30T00:11:42.116Z,23.60
2023-12-30T00:12:38.746Z,22.77
2023-12-30T00:13:35.420Z,24.20
2023-12-30T00:14:32.015Z,24.30
2023-12-30T00:15:28.632Z,26.95
2023-12-30T00:16:28.711Z,27.58
2023-12-30T00:17:25.432Z,29.38
2023-12-30T00:18:22.116Z,29.52
2023-12-30T00:19:19.130Z,25.92
2023-12-30T00:20:15.867Z,30.55
2023-12-30T00:21:13.449Z,27.98
2023-12-30T00:22:10.165Z,27.05
2023-12-30T00:23:07.230Z,25.85
2023-12-30T00:24:04.457Z,28.48
2023-12-30T00:25:01.189Z,27.02
2023-12-30T00:25:57.843Z,25.25
2023-12-30T00:26:54.554Z,27.73
2023-12-30T00:27:53.080Z,28.85
2023-12-30T00:28:50.986Z,30.40
2023-12-30T00:29:47.654Z,30.92
2023-12-30T00:30:44.464Z,36.10
2023-12-30T00:31:41.465Z,38.72
2023-12-30T00:32:38.266Z,35.67
2023-12-30T00:33:35.066Z,32.83
2023-12-30T00:34:35.149Z,33.30
2023-12-30T00:35:31.888Z,28.95
2023-12-30T00:36:29.202Z,30.35
2023-12-30T00:37:25.942Z,28.88
2023-12-30T00:38:24.446Z,28.98
2023-12-30T00:39:21.514Z,29.42
2023-12-30T00:40:25.856Z,30.02
2023-12-30T00:41:24.795Z,30.60
2023-12-30T00:42:21.579Z,30.02
2023-12-30T00:43:19.037Z,31.92
2023-12-30T00:44:15.683Z,31.42
2023-12-30T00:45:12.291Z,32.03
2023-12-30T00:46:09.755Z,32.38
2023-12-30T00:47:07.269Z,31.95
2023-12-30T00:48:04.485Z,33.05
2023-12-30T00:49:01.198Z,32.00
2023-12-30T00:49:58.005Z,33.17
2023-12-30T00:50:54.661Z,33.95
2023-12-30T00:51:51.337Z,32.05
2023-12-30T00:52:48.006Z,30.25
2023-12-30T00:53:44.695Z,30.65
2023-12-30T00:54:48.025Z,31.10
2023-12-30T00:55:48.495Z,30.25
2023-12-30T00:56:45.449Z,30.60
2023-12-30T00:57:42.180Z,31.73
2023-12-30T00:58:38.867Z,28.05
2023-12-30T00:59:35.554Z,28.35
2023-12-30T01:00:32.249Z,28.00
2023-12-30T01:01:28.922Z,27.70
2023-12-30T01:02:25.766Z,30.92
2023-12-30T01:03:22.475Z,25.27
2023-12-30T01:04:19.276Z,26.15
2023-12-30T01:05:15.952Z,29.92
2023-12-30T01:06:12.645Z,30.77
2023-12-30T01:07:09.324Z,31.75
2023-12-30T01:08:06.308Z,29.27
2023-12-30T01:09:03.441Z,24.52
2023-12-30T01:10:00.061Z,24.63
2023-12-30T01:10:56.786Z,27.95
2023-12-30T01:11:53.377Z,32.58
2023-12-30T01:12:50.443Z,28.50
2023-12-30T01:13:47.097Z,25.55
2023-12-30T01:14:44.270Z,23.98
2023-12-30T01:15:41.961Z,25.00
2023-12-30T01:16:38.597Z,25.98
2023-12-30T01:17:35.433Z,27.85
2023-12-30T01:18:32.657Z,27.15
2023-12-30T01:19:29.455Z,29.63
2023-12-30T01:20:26.151Z,27.70
2023-12-30T01:21:22.966Z,25.10
2023-12-30T01:22:19.650Z,24.40
2023-12-30T01:23:16.438Z,24.83
2023-12-30T01:24:13.140Z,23.60
2023-12-30T01:25:09.943Z,24.70
2023-12-30T01:26:06.609Z,27.08
2023-12-30T01:27:03.225Z,24.88
2023-12-30T01:27:59.880Z,33.05
2023-12-30T01:28:56.565Z,26.50
2023-12-30T01:29:53.284Z,23.92
2023-12-30T01:30:50.120Z,21.38
2023-12-30T01:31:46.912Z,23.10
2023-12-30T01:32:43.973Z,22.48
2023-12-30T01:33:41.017Z,23.33
2023-12-30T01:34:37.814Z,22.73
2023-12-30T01:35:34.485Z,22.67
2023-12-30T01:36:31.663Z,22.60
2023-12-30T01:37:28.387Z,22.13
2023-12-30T01:38:25.121Z,20.58
2023-12-30T01:39:21.737Z,20.70
2023-12-30T01:40:18.411Z,21.55
2023-12-30T01:41:15.124Z,21.42
2023-12-30T01:42:12.450Z,19.33
2023-12-30T01:43:23.883Z,20.50
2023-12-30T01:44:20.521Z,20.45
2023-12-30T01:45:17.187Z,20.00
2023-12-30T01:46:14.289Z,21.25
2023-12-30T01:47:11.155Z,23.05
2023-12-30T01:48:08.006Z,23.80
2023-12-30T01:49:04.906Z,24.38
2023-12-30T01:50:01.699Z,24.85
2023-12-30T01:51:01.284Z,23.23
2023-12-30T01:51:59.077Z,22.17
2023-12-30T01:52:55.850Z,26.08
2023-12-30T01:53:53.269Z,27.52
2023-12-30T01:54:49.973Z,27.60
2023-12-30T01:55:51.086Z,26.35
2023-12-30T01:56:50.301Z,26.38
2023-12-30T01:57:47.089Z,25.80
2023-12-30T01:58:44.385Z,25.33
2023-12-30T01:59:41.384Z,25.92
2023-12-30T02:00:39.637Z,25.40
2023-12-30T02:01:36.448Z,25.58
2023-12-30T02:02:33.184Z,26.50
2023-12-30T02:03:29.995Z,25.95
2023-12-30T02:04:26.812Z,24.65
2023-12-30T02:05:23.816Z,25.63
2023-12-30T02:06:20.625Z,24.58
2023-12-30T02:07:17.274Z,28.25
2023-12-30T02:08:14.896Z,38.13
2023-12-30T02:09:11.656Z,25.10
2023-12-30T02:10:09.638Z,24.35
2023-12-30T02:11:06.405Z,23.08
2023-12-30T02:12:04.275Z,23.55
2023-12-30T02:13:01.240Z,62.80
2023-12-30T02:13:58.045Z,38.83
2023-12-30T02:14:54.765Z,21.85
2023-12-30T02:15:51.443Z,35.42
2023-12-30T02:16:48.022Z,36.03
2023-12-30T02:17:45.296Z,31.73
2023-12-30T02:18:42.089Z,25.42
2023-12-30T02:19:38.853Z,24.00
2023-12-30T02:20:35.574Z,24.05
2023-12-30T02:21:32.158Z,24.30
2023-12-30T02:22:28.837Z,23.48
2023-12-30T02:23:25.461Z,25.88
2023-12-30T02:24:22.517Z,26.30
2023-12-30T02:25:19.273Z,25.58
2023-12-30T02:26:15.976Z,24.83
2023-12-30T02:27:12.734Z,23.83
2023-12-30T02:28:09.370Z,23.90
2023-12-30T02:29:06.018Z,24.40
2023-12-30T02:30:02.757Z,23.55
2023-12-30T02:30:59.466Z,25.38
2023-12-30T02:31:56.123Z,24.13
2023-12-30T02:32:57.326Z,23.30
2023-12-30T02:33:54.129Z,23.42
2023-12-30T02:34:50.868Z,23.92
2023-12-30T02:35:48.379Z,23.73
2023-12-30T02:36:46.435Z,22.08
2023-12-30T02:37:43.118Z,23.55
2023-12-30T02:38:39.722Z,21.55
2023-12-30T02:39:36.318Z,22.80
2023-12-30T02:40:33.004Z,20.98
2023-12-30T02:41:29.703Z,21.98
2023-12-30T02:42:26.376Z,22.05
2023-12-30T02:43:25.744Z,23.85
2023-12-30T02:44:22.522Z,22.50
2023-12-30T02:45:19.199Z,23.35
2023-12-30T02:46:15.806Z,22.70
2023-12-30T02:47:12.550Z,22.33
2023-12-30T02:48:09.338Z,20.95
2023-12-30T02:49:06.568Z,21.23
2023-12-30T02:50:03.523Z,21.08
2023-12-30T02:51:00.453Z,21.48
2023-12-30T02:51:58.803Z,20.05
2023-12-30T02:52:55.545Z,18.98
2023-12-30T02:53:52.724Z,17.92
2023-12-30T02:54:49.510Z,18.50
2023-12-30T02:55:46.277Z,18.60
2023-12-30T02:56:43.435Z,18.88
2023-12-30T02:57:48.620Z,18.75
2023-12-30T02:58:54.463Z,16.95
2023-12-30T02:59:51.227Z,17.58
2023-12-30T03:00:47.902Z,18.45
2023-12-30T03:01:44.817Z,17.33
2023-12-30T03:02:42.870Z,20.17
2023-12-30T03:03:39.512Z,20.65
2023-12-30T03:04:36.328Z,18.35
2023-12-30T03:05:34.158Z,17.85
2023-12-30T03:06:30.980Z,16.83
2023-12-30T03:07:27.666Z,17.55
2023-12-30T03:08:24.301Z,17.15
2023-12-30T03:09:20.944Z,17.02
2023-12-30T03:10:17.838Z,16.67
2023-12-30T03:11:14.727Z,15.95
2023-12-30T03:12:11.356Z,15.73
2023-12-30T03:13:08.122Z,16.08
2023-12-30T03:14:05.874Z,15.40
2023-12-30T03:15:02.502Z,14.45
2023-12-30T03:15:59.278Z,15.75
2023-12-30T03:16:56.011Z,15.57
2023-12-30T03:17:52.721Z,14.95
2023-12-30T03:18:49.562Z,15.40
2023-12-30T03:19:46.536Z,14.55
2023-12-30T03:20:43.785Z,14.45
2023-12-30T03:21:40.412Z,15.95
2023-12-30T03:22:37.068Z,16.48
2023-12-30T03:23:34.844Z,16.77
2023-12-30T03:24:31.452Z,15.38
2023-12-30T03:25:28.125Z,17.65
2023-12-30T03:26:24.837Z,15.90
2023-12-30T03:27:21.485Z,17.40
2023-12-30T03:28:18.844Z,18.08
2023-12-30T03:29:15.619Z,16.30
2023-12-30T03:30:12.670Z,17.70
2023-12-30T03:31:09.373Z,18.45
2023-12-30T03:32:06.052Z,18.17
2023-12-30T03:33:03.052Z,18.33
2023-12-30T03:34:00.002Z,17.92
2023-12-30T03:34:56.660Z,18.70
2023-12-30T03:35:53.882Z,17.45
2023-12-30T03:36:50.570Z,18.02
2023-12-30T03:37:47.180Z,19.40
2023-12-30T03:38:43.933Z,23.40
2023-12-30T03:39:40.530Z,27.52
2023-12-30T03:40:37.228Z,18.90
2023-12-30T03:41:33.958Z,18.90
2023-12-30T03:42:30.669Z,19.63
2023-12-30T03:43:27.409Z,21.48
2023-12-30T03:44:24.029Z,20.50
2023-12-30T03:45:20.689Z,22.27
2023-12-30T03:46:17.419Z,22.92
2023-12-30T03:47:14.390Z,22.58
2023-12-30T03:48:11.174Z,22.70
2023-12-30T03:49:09.182Z,20.55
2023-12-30T03:50:06.205Z,21.85
2023-12-30T03:51:02.935Z,18.55
2023-12-30T03:51:59.612Z,19.90
2023-12-30T03:52:56.271Z,20.25
2023-12-30T03:53:53.064Z,21.25
2023-12-30T03:54:49.882Z,19.45
2023-12-30T03:55:46.511Z,25.50
2023-12-30T03:56:43.529Z,23.58
2023-12-30T03:57:40.166Z,24.92
2023-12-30T03:58:36.848Z,22.42
2023-12-30T03:59:33.455Z,23.92
2023-12-30T04:00:30.117Z,21.45
2023-12-30T04:01:27.713Z,22.23
2023-12-30T04:02:24.442Z,21.05
2023-12-30T04:03:21.255Z,24.17
2023-12-30T04:04:17.938Z,25.50
2023-12-30T04:05:14.682Z,24.60
2023-12-30T04:06:19.948Z,26.20
2023-12-30T04:07:16.649Z,23.23
2023-12-30T04:08:13.488Z,23.92
2023-12-30T04:09:10.144Z,23.60
2023-12-30T04:10:08.403Z,21.40
2023-12-30T04:11:05.266Z,18.05
2023-12-30T04:12:02.010Z,18.00
2023-12-30T04:12:58.738Z,17.10
2023-12-30T04:13:55.470Z,16.45
2023-12-30T04:14:52.542Z,16.40
2023-12-30T04:15:49.367Z,19.60
2023-12-30T04:16:46.103Z,17.98
2023-12-30T04:17:42.753Z,20.05
2023-12-30T04:18:39.663Z,21.48
2023-12-30T04:19:36.500Z,22.20
2023-12-30T04:20:33.266Z,16.92
2023-12-30T04:21:29.872Z,18.38
2023-12-30T04:22:28.731Z,20.98
2023-12-30T04:23:25.630Z,19.38
2023-12-30T04:24:23.096Z,21.52
2023-12-30T04:25:19.805Z,20.85
2023-12-30T04:26:16.571Z,21.42
2023-12-30T04:27:13.265Z,20.15
2023-12-30T04:28:09.989Z,22.40
2023-12-30T04:29:06.694Z,22.50
2023-12-30T04:30:03.863Z,24.38
2023-12-30T04:31:01.277Z,22.20
2023-12-30T04:31:58.006Z,21.98
2023-12-30T04:32:54.680Z,26.00
2023-12-30T04:33:51.424Z,30.88
2023-12-30T04:34:48.325Z,20.95
2023-12-30T04:35:45.556Z,19.85
2023-12-30T04:36:42.127Z,19.65
2023-12-30T04:37:38.738Z,27.60
2023-12-30T04:38:35.369Z,25.10
2023-12-30T04:39:31.993Z,21.05
2023-12-30T04:40:28.658Z,19.90
2023-12-30T04:41:25.598Z,18.08
2023-12-30T04:42:22.241Z,18.45
2023-12-30T04:43:19.028Z,19.00
2023-12-30T04:44:15.769Z,21.20
2023-12-30T04:45:14.101Z,24.63
2023-12-30T04:46:12.932Z,26.65
2023-12-30T04:47:09.643Z,23.42
2023-12-30T04:48:07.109Z,23.25
2023-12-30T04:49:04.292Z,22.00
2023-12-30T04:50:01.188Z,21.42
2023-12-30T04:50:57.912Z,20.00
2023-12-30T04:51:54.540Z,20.60
2023-12-30T04:52:51.135Z,20.15
2023-12-30T04:53:47.955Z,21.05
2023-12-30T04:54:44.760Z,21.48
2023-12-30T04:55:42.116Z,20.90
2023-12-30T04:56:38.714Z,22.02
2023-12-30T04:57:35.336Z,21.88
2023-12-30T04:58:32.497Z,22.80
2023-12-30T04:59:29.627Z,21.55
2023-12-30T05:00:26.426Z,23.95
2023-12-30T05:01:23.183Z,24.02
2023-12-30T05:02:19.879Z,25.25
2023-12-30T05:03:17.963Z,23.80
2023-12-30T05:04:14.850Z,23.48
2023-12-30T05:05:11.587Z,23.20
2023-12-30T05:06:08.281Z,31.05
2023-12-30T05:07:05.414Z,23.88
2023-12-30T05:08:05.258Z,22.52
2023-12-30T05:09:02.888Z,22.25
2023-12-30T05:09:59.630Z,22.73
2023-12-30T05:10:56.740Z,21.40
2023-12-30T05:11:53.431Z,21.08
2023-12-30T05:12:50.860Z,24.77
2023-12-30T05:13:47.710Z,24.92
2023-12-30T05:14:44.516Z,25.75
2023-12-30T05:15:41.122Z,24.75
2023-12-30T05:16:47.360Z,24.73
2023-12-30T05:17:44.842Z,23.45
2023-12-30T05:18:41.629Z,24.88
2023-12-30T05:19:38.450Z,23.23
2023-12-30T05:20:35.093Z,21.95
2023-12-30T05:21:31.715Z,23.05
2023-12-30T05:22:28.531Z,22.63
2023-12-30T05:23:25.185Z,22.38
2023-12-30T05:24:22.689Z,25.15
2023-12-30T05:25:19.536Z,24.98
2023-12-30T05:26:16.306Z,22.67
2023-12-30T05:27:12.876Z,22.80
2023-12-30T05:28:09.604Z,26.02
2023-12-30T05:29:06.261Z,24.52
2023-12-30T05:30:03.096Z,25.23
2023-12-30T05:31:00.551Z,27.92
2023-12-30T05:31:57.379Z,32.17
2023-12-30T05:32:54.040Z,34.55
2023-12-30T05:33:50.920Z,31.55
2023-12-30T05:34:47.651Z,26.20
2023-12-30T05:35:44.402Z,25.77
2023-12-30T05:36:41.940Z,32.53
2023-12-30T05:37:38.731Z,33.28
2023-12-30T05:38:35.384Z,28.48
2023-12-30T05:39:32.012Z,30.45
2023-12-30T05:40:28.630Z,30.45
2023-12-30T05:41:25.291Z,29.90
2023-12-30T05:42:22.043Z,30.38
2023-12-30T05:43:18.657Z,30.38
2023-12-30T05:44:15.434Z,31.17
2023-12-30T05:45:12.053Z,31.40
2023-12-30T05:46:14.984Z,29.92
2023-12-30T05:47:11.786Z,30.05
2023-12-30T05:48:09.595Z,30.77
2023-12-30T05:49:07.346Z,31.77
2023-12-30T05:50:04.446Z,29.70
2023-12-30T05:51:01.727Z,31.27
2023-12-30T05:51:58.353Z,31.02
2023-12-30T05:52:55.659Z,30.45
2023-12-30T05:53:52.357Z,33.50
2023-12-30T05:54:49.061Z,33.33
2023-12-30T05:55:45.743Z,37.55
2023-12-30T05:56:42.439Z,42.03
2023-12-30T05:57:39.117Z,42.70
2023-12-30T05:58:36.214Z,41.25
2023-12-30T05:59:33.054Z,37.08
2023-12-30T06:00:29.711Z,37.60
2023-12-30T06:01:26.613Z,37.30
2023-12-30T06:02:23.597Z,35.00
2023-12-30T06:03:21.117Z,36.25
2023-12-30T06:04:17.938Z,32.70
2023-12-30T06:05:14.539Z,31.75
2023-12-30T06:06:11.355Z,33.08
2023-12-30T06:07:09.327Z,29.77
2023-12-30T06:08:06.832Z,29.38
2023-12-30T06:09:03.839Z,28.73
2023-12-30T06:10:00.589Z,25.05
2023-12-30T06:10:57.267Z,26.48
2023-12-30T06:11:53.834Z,25.63
2023-12-30T06:12:50.656Z,25.13
2023-12-30T06:13:47.502Z,24.58
2023-12-30T06:14:44.161Z,24.00
2023-12-30T06:15:41.479Z,25.02
2023-12-30T06:16:38.100Z,22.85
2023-12-30T06:17:34.768Z,23.80
2023-12-30T06:18:34.525Z,27.98
2023-12-30T06:19:32.371Z,24.60
2023-12-30T06:20:29.087Z,23.05
2023-12-30T06:21:25.835Z,21.95
2023-12-30T06:22:22.611Z,23.20
2023-12-30T06:23:19.287Z,24.77
2023-12-30T06:24:15.968Z,23.45
2023-12-30T06:25:12.718Z,26.52
2023-12-30T06:26:09.314Z,30.45
2023-12-30T06:27:06.221Z,28.75
2023-12-30T06:28:02.948Z,29.90
2023-12-30T06:28:59.757Z,33.10
2023-12-30T06:29:56.553Z,31.63
2023-12-30T06:30:53.842Z,31.27
2023-12-30T06:31:51.247Z,32.92
2023-12-30T06:32:48.937Z,31.85
2023-12-30T06:33:45.717Z,33.92
2023-12-30T06:34:42.847Z,32.20
2023-12-30T06:35:39.576Z,31.17
2023-12-30T06:36:36.325Z,32.28
2023-12-30T06:37:33.087Z,35.58
2023-12-30T06:38:29.730Z,35.38
2023-12-30T06:39:26.338Z,35.38
2023-12-30T06:40:22.950Z,35.65
2023-12-30T06:41:22.199Z,31.85
2023-12-30T06:42:18.769Z,31.33
2023-12-30T06:43:15.565Z,32.15
2023-12-30T06:44:12.272Z,30.98
2023-12-30T06:45:09.506Z,31.00
2023-12-30T06:46:06.320Z,30.55
2023-12-30T06:47:02.922Z,29.83
2023-12-30T06:47:59.579Z,30.23
2023-12-30T06:48:56.316Z,31.90
2023-12-30T06:49:53.162Z,30.73
2023-12-30T06:50:49.935Z,32.67
2023-12-30T06:51:46.780Z,34.53
2023-12-30T06:52:43.373Z,34.30
2023-12-30T06:53:39.995Z,32.40
2023-12-30T06:54:36.653Z,33.55
2023-12-30T06:55:38.795Z,32.67
2023-12-30T06:56:42.134Z,35.55
2023-12-30T06:57:38.775Z,35.40
2023-12-30T06:58:36.227Z,35.45
2023-12-30T06:59:32.912Z,34.55
2023-12-30T07:00:29.551Z,33.70
2023-12-30T07:01:26.655Z,33.35
2023-12-30T07:02:23.335Z,33.80
2023-12-30T07:03:19.987Z,33.75
2023-12-30T07:04:16.799Z,33.75
2023-12-30T07:05:13.508Z,33.65
2023-12-30T07:06:10.254Z,31.92
2023-12-30T07:07:06.970Z,31.92
2023-12-30T07:08:03.763Z,31.80
2023-12-30T07:09:00.446Z,32.42
2023-12-30T07:09:57.186Z,30.80
2023-12-30T07:10:53.792Z,28.77
2023-12-30T07:11:50.431Z,28.13
2023-12-30T07:12:47.096Z,29.00
2023-12-30T07:13:44.685Z,27.33
2023-12-30T07:14:41.480Z,27.85
2023-12-30T07:15:38.135Z,27.80
2023-12-30T07:16:34.908Z,26.35
2023-12-30T07:17:31.592Z,28.02
2023-12-30T07:18:28.347Z,28.38
2023-12-30T07:19:25.149Z,28.02
2023-12-30T07:20:24.630Z,28.92
2023-12-30T07:21:21.357Z,26.83
2023-12-30T07:22:20.522Z,27.33
2023-12-30T07:23:17.155Z,25.33
2023-12-30T07:24:14.102Z,28.33
2023-12-30T07:25:10.738Z,27.55
2023-12-30T07:26:08.528Z,28.13
2023-12-30T07:27:06.293Z,26.45
2023-12-30T07:28:03.363Z,29.02
2023-12-30T07:29:00.501Z,27.73
2023-12-30T07:29:58.659Z,31.25
2023-12-30T07:30:56.049Z,36.83
2023-12-30T07:31:52.824Z,31.15
2023-12-30T07:32:49.530Z,27.05
2023-12-30T07:33:46.221Z,27.38
2023-12-30T07:34:43.044Z,27.23
2023-12-30T07:35:39.702Z,29.27
2023-12-30T07:36:36.366Z,27.67
2023-12-30T07:37:33.941Z,26.55
2023-12-30T07:38:32.138Z,27.92
2023-12-30T07:39:29.457Z,26.45
2023-12-30T07:40:26.361Z,29.92
2023-12-30T07:41:23.000Z,26.92
2023-12-30T07:42:21.361Z,28.70
2023-12-30T07:43:19.476Z,28.30
2023-12-30T07:44:16.370Z,27.05
2023-12-30T07:45:13.105Z,27.52
2023-12-30T07:46:09.829Z,29.65
2023-12-30T07:47:08.318Z,29.58
2023-12-30T07:48:05.578Z,26.55
2023-12-30T07:49:02.271Z,22.65
2023-12-30T07:49:59.008Z,22.15
2023-12-30T07:50:55.892Z,23.92
2023-12-30T07:51:54.370Z,22.27
2023-12-30T07:52:51.232Z,23.63
2023-12-30T07:53:47.956Z,22.33
2023-12-30T07:54:44.535Z,23.70
2023-12-30T07:55:41.298Z,23.10
2023-12-30T07:56:37.917Z,24.38
2023-12-30T07:57:34.597Z,26.23
2023-12-30T07:58:31.299Z,26.77
2023-12-30T07:59:27.940Z,34.03
2023-12-30T08:00:24.678Z,26.50
2023-12-30T08:01:21.408Z,23.40
2023-12-30T08:02:18.131Z,23.13
2023-12-30T08:03:14.869Z,28.38
2023-12-30T08:04:12.300Z,25.98
2023-12-30T08:05:09.216Z,25.02
2023-12-30T08:06:06.190Z,22.45
2023-12-30T08:07:03.044Z,23.77
2023-12-30T08:07:59.799Z,25.17
2023-12-30T08:08:56.357Z,22.13
2023-12-30T08:09:52.952Z,22.63
2023-12-30T08:10:49.583Z,23.35
2023-12-30T08:11:54.957Z,25.73
2023-12-30T08:12:58.491Z,23.33
2023-12-30T08:13:55.277Z,23.23
2023-12-30T08:14:51.923Z,24.83
2023-12-30T08:15:48.639Z,23.60
2023-12-30T08:16:45.624Z,23.30
2023-12-30T08:17:42.391Z,24.95
2023-12-30T08:18:39.308Z,25.00
2023-12-30T08:19:36.052Z,26.23
2023-12-30T08:20:32.738Z,25.55
2023-12-30T08:21:29.871Z,26.80
2023-12-30T08:22:26.502Z,26.50
2023-12-30T08:23:23.139Z,28.23
2023-12-30T08:24:20.700Z,28.33
2023-12-30T08:25:17.637Z,26.95
2023-12-30T08:26:14.301Z,27.33
2023-12-30T08:27:11.025Z,27.63
2023-12-30T08:28:07.687Z,27.42
2023-12-30T08:29:05.864Z,26.80
2023-12-30T08:30:02.545Z,25.58
2023-12-30T08:31:57.017Z,26.67
2023-12-30T08:32:53.686Z,28.08
2023-12-30T08:33:52.258Z,27.63
2023-12-30T08:34:48.958Z,28.17
2023-12-30T08:35:45.720Z,25.55
2023-12-30T08:36:44.276Z,25.45
2023-12-30T08:37:41.180Z,25.88
2023-12-30T08:38:37.979Z,25.52
2023-12-30T08:39:36.827Z,24.27
2023-12-30T08:40:36.174Z,26.30
2023-12-30T08:41:35.171Z,26.75
2023-12-30T08:42:36.023Z,25.83
2023-12-30T08:43:32.719Z,26.73
2023-12-30T08:44:29.508Z,26.88
2023-12-30T08:45:26.109Z,25.67
2023-12-30T08:46:23.264Z,27.63
2023-12-30T08:47:20.616Z,27.67
2023-12-30T08:48:17.825Z,30.13
2023-12-30T08:49:14.578Z,29.45
2023-12-30T08:50:11.620Z,33.30
2023-12-30T08:51:08.243Z,32.72
2023-12-30T08:52:06.381Z,30.92
2023-12-30T08:53:03.472Z,28.13
2023-12-30T08:54:00.478Z,28.77
2023-12-30T08:54:57.347Z,26.58
2023-12-30T08:55:56.456Z,27.35
2023-12-30T08:56:55.267Z,26.90
2023-12-30T08:57:52.032Z,28.25
2023-12-30T08:58:48.675Z,31.08
2023-12-30T08:59:45.304Z,31.30
2023-12-30T09:00:42.389Z,29.83
2023-12-30T09:01:39.149Z,32.22
2023-12-30T09:02:47.321Z,33.90
2023-12-30T09:03:44.163Z,32.28
2023-12-30T09:04:40.852Z,34.67
2023-12-30T09:05:37.706Z,32.88
2023-12-30T09:06:34.363Z,37.17
2023-12-30T09:07:32.193Z,36.95
2023-12-30T09:08:28.892Z,38.22
2023-12-30T09:09:26.005Z,35.22
2023-12-30T09:10:22.632Z,35.55
2023-12-30T09:11:23.577Z,34.40
2023-12-30T09:12:20.265Z,35.88
2023-12-30T09:13:16.891Z,35.08
2023-12-30T09:14:14.573Z,34.92
2023-12-30T09:15:11.359Z,36.05
2023-12-30T09:16:07.981Z,35.75
2023-12-30T09:17:04.909Z,38.75
2023-12-30T09:18:01.678Z,37.53
2023-12-30T09:18:58.499Z,40.83
2023-12-30T09:19:55.659Z,39.97
2023-12-30T09:20:52.446Z,39.88
2023-12-30T09:21:49.068Z,40.60
2023-12-30T09:22:45.686Z,37.50
2023-12-30T09:23:42.658Z,37.78
2023-12-30T09:24:39.527Z,37.28
2023-12-30T09:25:36.254Z,38.55
2023-12-30T09:26:32.836Z,39.70
2023-12-30T09:27:29.536Z,39.05
2023-12-30T09:28:26.159Z,40.35
2023-12-30T09:29:22.809Z,42.13
2023-12-30T09:30:19.582Z,40.88
2023-12-30T09:31:17.324Z,41.17
2023-12-30T09:32:14.112Z,36.95
2023-12-30T09:33:12.356Z,39.17
2023-12-30T09:34:09.835Z,37.53
2023-12-30T09:35:07.409Z,38.67
2023-12-30T09:36:05.990Z,39.58
2023-12-30T09:37:03.052Z,40.03
2023-12-30T09:37:59.696Z,37.80
2023-12-30T09:38:56.347Z,37.85
2023-12-30T09:39:53.086Z,33.35
2023-12-30T09:40:53.677Z,32.53
2023-12-30T09:41:50.330Z,34.03
2023-12-30T09:42:50.946Z,32.30
2023-12-30T09:43:49.185Z,33.33
2023-12-30T09:44:47.950Z,32.53
2023-12-30T09:45:44.979Z,33.63
2023-12-30T09:46:41.782Z,27.85
2023-12-30T09:47:39.654Z,27.52
2023-12-30T09:48:37.812Z,20.38
2023-12-30T09:49:37.043Z,15.40
2023-12-30T09:50:33.826Z,13.68
2023-12-30T09:51:32.325Z,14.63
2023-12-30T09:52:29.038Z,13.52
2023-12-30T09:53:26.214Z,13.27
2023-12-30T09:54:31.392Z,13.77
2023-12-30T09:55:31.341Z,22.73
2023-12-30T09:56:28.060Z,33.95
2023-12-30T09:57:24.800Z,33.60
2023-12-30T09:58:23.668Z,24.98
2023-12-30T09:59:20.736Z,18.58
2023-12-30T10:00:20.045Z,15.55
2023-12-30T10:01:17.772Z,18.52
2023-12-30T10:02:14.864Z,18.48
2023-12-30T10:03:12.738Z,32.72
2023-12-30T10:04:09.596Z,36.13
2023-12-30T10:05:07.868Z,37.30
2023-12-30T10:06:05.849Z,37.80
2023-12-30T10:07:02.965Z,37.33
2023-12-30T10:08:04.840Z,35.78
2023-12-30T10:09:02.004Z,35.70
2023-12-30T10:09:58.696Z,34.22
2023-12-30T10:10:55.425Z,36.13
2023-12-30T10:11:52.157Z,38.97
2023-12-30T10:12:48.817Z,36.35
2023-12-30T10:13:45.468Z,35.60
2023-12-30T10:14:42.293Z,38.22
2023-12-30T10:15:40.287Z,37.85
2023-12-30T10:16:37.309Z,37.40
2023-12-30T10:17:34.603Z,37.03
2023-12-30T10:18:32.656Z,38.00
2023-12-30T10:19:29.378Z,37.60
2023-12-30T10:20:26.039Z,36.05
2023-12-30T10:21:22.862Z,36.35
2023-12-30T10:22:19.512Z,36.83
2023-12-30T10:23:16.229Z,37.28
2023-12-30T10:24:12.980Z,37.15
2023-12-30T10:25:10.293Z,36.45
2023-12-30T10:26:07.539Z,34.38
2023-12-30T10:27:06.040Z,37.25
2023-12-30T10:28:03.885Z,37.35
2023-12-30T10:29:01.182Z,38.55
2023-12-30T10:30:00.693Z,40.83
2023-12-30T10:31:05.737Z,42.67
2023-12-30T10:32:05.030Z,41.65
2023-12-30T10:33:10.238Z,42.00
2023-12-30T10:34:07.500Z,43.92
2023-12-30T10:35:05.252Z,42.97
2023-12-30T10:36:01.863Z,44.10
2023-12-30T10:36:59.265Z,43.28
2023-12-30T10:37:56.341Z,43.22
2023-12-30T10:38:55.234Z,42.97
2023-12-30T10:39:54.316Z,43.28
2023-12-30T10:40:55.530Z,45.75
2023-12-30T10:41:52.650Z,42.78
2023-12-30T10:42:49.310Z,41.53
2023-12-30T10:43:46.158Z,41.25
2023-12-30T10:44:43.518Z,41.45
2023-12-30T10:45:40.810Z,40.33
2023-12-30T10:46:39.367Z,41.17
2023-12-30T10:47:41.093Z,38.03
2023-12-30T10:48:47.305Z,38.50
2023-12-30T10:49:55.629Z,39.25
2023-12-30T10:50:56.246Z,37.83
2023-12-30T10:51:55.166Z,36.10
2023-12-30T10:53:01.325Z,32.83
2023-12-30T10:54:08.815Z,27.42
2023-12-30T10:55:15.893Z,25.83
2023-12-30T10:56:17.307Z,25.38
2023-12-30T10:57:18.756Z,26.58
2023-12-30T10:58:21.066Z,25.15
2023-12-30T10:59:19.700Z,26.35
2023-12-30T11:00:21.572Z,23.45
2023-12-30T11:01:19.243Z,28.20
2023-12-30T11:02:16.730Z,30.08
2023-12-30T11:03:13.669Z,33.30
2023-12-30T11:04:15.895Z,34.60
2023-12-30T11:05:20.103Z,34.67
2023-12-30T11:06:24.309Z,37.08
2023-12-30T11:07:22.074Z,35.88
2023-12-30T11:08:19.149Z,35.63
2023-12-30T11:09:16.120Z,36.45
2023-12-30T11:10:20.863Z,36.70
2023-12-30T11:11:20.708Z,39.00
2023-12-30T11:12:17.348Z,37.97
2023-12-30T11:13:14.124Z,38.33
2023-12-30T11:14:16.237Z,38.97
2023-12-30T11:15:32.124Z,37.83
2023-12-30T11:16:34.516Z,36.83
2023-12-30T11:17:35.061Z,36.65
2023-12-30T11:18:49.097Z,37.92
2023-12-30T11:19:46.989Z,35.38
2023-12-30T11:20:47.536Z,38.72
2023-12-30T11:21:47.875Z,27.65
2023-12-30T11:22:44.672Z,27.63
2023-12-30T11:23:41.381Z,31.90
2023-12-30T11:24:43.522Z,35.58
2023-12-30T11:25:49.682Z,34.92
2023-12-30T11:26:47.669Z,32.97
2023-12-30T11:28:07.743Z,29.00
2023-12-30T11:29:05.348Z,40.83
2023-12-30T11:30:01.927Z,36.25
2023-12-30T11:31:01.324Z,32.53
2023-12-30T11:32:02.452Z,31.58
2023-12-30T11:32:59.657Z,39.63
2023-12-30T11:33:58.289Z,40.53
2023-12-30T11:34:55.993Z,30.23
2023-12-30T11:35:55.629Z,37.38
2023-12-30T11:36:54.307Z,42.05
2023-12-30T11:37:55.799Z,37.00
2023-12-30T11:38:55.929Z,38.03
2023-12-30T11:39:57.977Z,35.67
2023-12-30T11:40:58.608Z,40.58
2023-12-30T11:41:58.122Z,24.52
2023-12-30T11:42:55.468Z,24.65
2023-12-30T11:43:53.040Z,21.58
2023-12-30T11:44:50.950Z,21.40
2023-12-30T11:45:48.248Z,19.35
2023-12-30T11:46:44.959Z,21.17
2023-12-30T11:47:41.772Z,19.98
2023-12-30T11:48:38.513Z,21.08
2023-12-30T11:49:36.544Z,23.63
2023-12-30T11:50:33.273Z,20.70
2023-12-30T11:51:31.543Z,23.13
2023-12-30T11:52:28.153Z,25.13
2023-12-30T11:53:24.792Z,22.05
2023-12-30T11:54:22.501Z,19.88
2023-12-30T11:55:19.222Z,20.27
2023-12-30T11:56:17.470Z,19.50
2023-12-30T11:57:16.070Z,18.67
2023-12-30T11:58:12.782Z,17.25
2023-12-30T11:59:09.888Z,22.10
2023-12-30T12:00:09.131Z,18.13
2023-12-30T12:01:06.985Z,15.38
2023-12-30T12:02:12.692Z,14.43
2023-12-30T12:03:09.503Z,15.35
2023-12-30T12:04:06.297Z,16.83
2023-12-30T12:05:03.138Z,16.30
2023-12-30T12:06:00.339Z,17.92
2023-12-30T12:06:57.041Z,18.83
2023-12-30T12:07:53.738Z,23.88
2023-12-30T12:08:50.349Z,17.05
2023-12-30T12:09:47.082Z,17.80
2023-12-30T12:10:43.787Z,14.80
2023-12-30T12:11:40.532Z,20.92
2023-12-30T12:12:43.540Z,17.77
2023-12-30T12:13:41.238Z,24.23
2023-12-30T12:14:38.222Z,21.17
2023-12-30T12:15:34.897Z,19.95
2023-12-30T12:16:33.817Z,19.33
2023-12-30T12:17:31.212Z,15.20
2023-12-30T12:18:27.981Z,18.77
2023-12-30T12:19:26.707Z,18.50
2023-12-30T12:20:25.263Z,18.58
2023-12-30T12:21:22.186Z,14.60
2023-12-30T12:22:19.068Z,15.98